sensor_id;sensor_type;location;lat;lon;timestamp;P1;durP1;ratioP1;P2;durP2;ratioP2
28988;SDS011;16089;59.952;10.818;2022-09-12T00:00:47;13.90;;;10.45;;
28988;SDS011;16089;59.952;10.818;2022-09-12T00:03:13;15.75;;;11.57;;
28988;SDS011;16089;59.952;10.818;2022-09-12T00:05:40;14.13;;;10.63;;
28988;SDS011;16089;59.952;10.818;2022-09-12T00:08:07;16.75;;;11.30;;
28988;SDS011;16089;59.952;10.818;2022-09-12T00:10:35;16.30;;;11.45;;
28988;SDS011;16089;59.952;10.818;2022-09-12T00:13:03;17.02;;;11.65;;
28988;SDS011;16089;59.952;10.818;2022-09-12T00:15:30;17.70;;;12.38;;
28988;SDS011;16089;59.952;10.818;2022-09-12T00:17:56;14.88;;;10.70;;
28988;SDS011;16089;59.952;10.818;2022-09-12T00:20:22;14.48;;;11.10;;
28988;SDS011;16089;59.952;10.818;2022-09-12T00:22:49;14.05;;;11.02;;
28988;SDS011;16089;59.952;10.818;2022-09-12T00:25:15;14.68;;;10.60;;
28988;SDS011;16089;59.952;10.818;2022-09-12T00:27:41;15.57;;;10.57;;
28988;SDS011;16089;59.952;10.818;2022-09-12T00:30:10;16.05;;;10.70;;
28988;SDS011;16089;59.952;10.818;2022-09-12T00:32:36;15.20;;;10.55;;
28988;SDS011;16089;59.952;10.818;2022-09-12T00:35:03;12.73;;;10.25;;
28988;SDS011;16089;59.952;10.818;2022-09-12T00:37:29;13.82;;;9.80;;
28988;SDS011;16089;59.952;10.818;2022-09-12T00:39:55;11.88;;;9.45;;
28988;SDS011;16089;59.952;10.818;2022-09-12T00:42:22;13.07;;;11.10;;
28988;SDS011;16089;59.952;10.818;2022-09-12T00:44:49;14.55;;;10.57;;
28988;SDS011;16089;59.952;10.818;2022-09-12T00:47:20;12.98;;;9.98;;
28988;SDS011;16089;59.952;10.818;2022-09-12T00:49:48;12.05;;;10.38;;
28988;SDS011;16089;59.952;10.818;2022-09-12T00:52:16;12.85;;;10.68;;
28988;SDS011;16089;59.952;10.818;2022-09-12T00:54:44;12.80;;;10.02;;
28988;SDS011;16089;59.952;10.818;2022-09-12T00:57:12;10.48;;;8.27;;
28988;SDS011;16089;59.952;10.818;2022-09-12T00:59:40;10.88;;;8.52;;
28988;SDS011;16089;59.952;10.818;2022-09-12T01:02:08;11.52;;;9.50;;
28988;SDS011;16089;59.952;10.818;2022-09-12T01:04:36;11.70;;;8.13;;
28988;SDS011;16089;59.952;10.818;2022-09-12T01:07:03;12.15;;;8.98;;
28988;SDS011;16089;59.952;10.818;2022-09-12T01:09:31;10.85;;;8.93;;
28988;SDS011;16089;59.952;10.818;2022-09-12T01:11:57;12.82;;;8.80;;
28988;SDS011;16089;59.952;10.818;2022-09-12T01:14:24;12.45;;;8.68;;
28988;SDS011;16089;59.952;10.818;2022-09-12T01:16:50;10.55;;;8.10;;
28988;SDS011;16089;59.952;10.818;2022-09-12T01:19:24;11.35;;;9.48;;
28988;SDS011;16089;59.952;10.818;2022-09-12T01:22:01;13.27;;;8.75;;
28988;SDS011;16089;59.952;10.818;2022-09-12T01:24:41;10.60;;;8.18;;
28988;SDS011;16089;59.952;10.818;2022-09-12T01:27:32;10.90;;;8.73;;
28988;SDS011;16089;59.952;10.818;2022-09-12T01:30:04;11.95;;;8.55;;
28988;SDS011;16089;59.952;10.818;2022-09-12T01:32:36;11.25;;;8.23;;
28988;SDS011;16089;59.952;10.818;2022-09-12T01:35:05;11.50;;;9.65;;
28988;SDS011;16089;59.952;10.818;2022-09-12T01:37:41;13.75;;;9.48;;
28988;SDS011;16089;59.952;10.818;2022-09-12T01:40:11;12.43;;;9.90;;
28988;SDS011;16089;59.952;10.818;2022-09-12T01:42:40;12.10;;;9.02;;
28988;SDS011;16089;59.952;10.818;2022-09-12T01:45:10;12.60;;;10.23;;
28988;SDS011;16089;59.952;10.818;2022-09-12T01:47:40;12.70;;;9.05;;
28988;SDS011;16089;59.952;10.818;2022-09-12T01:50:07;9.00;;;7.72;;
28988;SDS011;16089;59.952;10.818;2022-09-12T01:52:36;12.50;;;9.20;;
28988;SDS011;16089;59.952;10.818;2022-09-12T01:55:04;10.73;;;8.95;;
28988;SDS011;16089;59.952;10.818;2022-09-12T01:57:33;9.95;;;8.15;;
28988;SDS011;16089;59.952;10.818;2022-09-12T02:00:03;8.73;;;7.25;;
28988;SDS011;16089;59.952;10.818;2022-09-12T02:02:31;11.32;;;8.55;;
28988;SDS011;16089;59.952;10.818;2022-09-12T02:05:02;9.98;;;8.40;;
28988;SDS011;16089;59.952;10.818;2022-09-12T02:07:30;13.23;;;9.63;;
28988;SDS011;16089;59.952;10.818;2022-09-12T02:09:58;9.73;;;7.63;;
28988;SDS011;16089;59.952;10.818;2022-09-12T02:12:28;10.65;;;6.78;;
28988;SDS011;16089;59.952;10.818;2022-09-12T02:14:58;10.35;;;7.25;;
28988;SDS011;16089;59.952;10.818;2022-09-12T02:17:25;11.65;;;8.38;;
28988;SDS011;16089;59.952;10.818;2022-09-12T02:19:53;12.07;;;7.55;;
28988;SDS011;16089;59.952;10.818;2022-09-12T02:22:23;10.43;;;7.05;;
28988;SDS011;16089;59.952;10.818;2022-09-12T02:24:51;9.20;;;7.32;;
28988;SDS011;16089;59.952;10.818;2022-09-12T02:27:19;8.93;;;6.63;;
28988;SDS011;16089;59.952;10.818;2022-09-12T02:29:46;12.10;;;7.47;;
28988;SDS011;16089;59.952;10.818;2022-09-12T02:32:15;11.25;;;6.82;;
28988;SDS011;16089;59.952;10.818;2022-09-12T02:34:46;10.48;;;7.72;;
28988;SDS011;16089;59.952;10.818;2022-09-12T02:37:17;9.43;;;7.78;;
28988;SDS011;16089;59.952;10.818;2022-09-12T02:39:49;10.20;;;7.13;;
28988;SDS011;16089;59.952;10.818;2022-09-12T02:42:15;8.32;;;6.60;;
28988;SDS011;16089;59.952;10.818;2022-09-12T02:44:41;9.35;;;7.30;;
28988;SDS011;16089;59.952;10.818;2022-09-12T02:47:09;10.35;;;6.75;;
28988;SDS011;16089;59.952;10.818;2022-09-12T02:49:36;10.02;;;7.00;;
28988;SDS011;16089;59.952;10.818;2022-09-12T02:52:03;7.30;;;5.90;;
28988;SDS011;16089;59.952;10.818;2022-09-12T02:54:29;9.93;;;5.80;;
28988;SDS011;16089;59.952;10.818;2022-09-12T02:56:57;7.63;;;5.65;;
28988;SDS011;16089;59.952;10.818;2022-09-12T02:59:23;7.78;;;5.35;;
28988;SDS011;16089;59.952;10.818;2022-09-12T03:01:55;8.25;;;5.32;;
28988;SDS011;16089;59.952;10.818;2022-09-12T03:04:33;7.07;;;4.97;;
28988;SDS011;16089;59.952;10.818;2022-09-12T03:07:05;9.40;;;5.63;;
28988;SDS011;16089;59.952;10.818;2022-09-12T03:09:36;10.18;;;5.45;;
28988;SDS011;16089;59.952;10.818;2022-09-12T03:12:12;8.95;;;5.85;;
28988;SDS011;16089;59.952;10.818;2022-09-12T03:14:47;7.20;;;5.50;;
28988;SDS011;16089;59.952;10.818;2022-09-12T03:17:18;10.45;;;6.50;;
28988;SDS011;16089;59.952;10.818;2022-09-12T03:19:53;13.32;;;8.77;;
28988;SDS011;16089;59.952;10.818;2022-09-12T03:22:21;17.30;;;11.15;;
28988;SDS011;16089;59.952;10.818;2022-09-12T03:24:50;17.58;;;10.60;;
28988;SDS011;16089;59.952;10.818;2022-09-12T03:27:21;23.83;;;13.93;;
28988;SDS011;16089;59.952;10.818;2022-09-12T03:29:50;26.45;;;16.45;;
28988;SDS011;16089;59.952;10.818;2022-09-12T03:32:17;28.75;;;15.70;;
28988;SDS011;16089;59.952;10.818;2022-09-12T03:34:44;30.70;;;17.63;;
28988;SDS011;16089;59.952;10.818;2022-09-12T03:37:10;32.20;;;17.58;;
28988;SDS011;16089;59.952;10.818;2022-09-12T03:39:36;27.77;;;16.35;;
28988;SDS011;16089;59.952;10.818;2022-09-12T03:42:03;30.13;;;17.75;;
28988;SDS011;16089;59.952;10.818;2022-09-12T03:44:31;27.23;;;16.52;;
28988;SDS011;16089;59.952;10.818;2022-09-12T03:46:57;25.58;;;15.13;;
28988;SDS011;16089;59.952;10.818;2022-09-12T03:49:23;24.38;;;14.98;;
28988;SDS011;16089;59.952;10.818;2022-09-12T03:51:50;25.42;;;14.27;;
28988;SDS011;16089;59.952;10.818;2022-09-12T03:54:16;20.25;;;14.35;;
28988;SDS011;16089;59.952;10.818;2022-09-12T03:56:42;22.38;;;14.57;;
28988;SDS011;16089;59.952;10.818;2022-09-12T03:59:09;21.77;;;14.90;;
28988;SDS011;16089;59.952;10.818;2022-09-12T04:01:36;21.23;;;14.38;;
28988;SDS011;16089;59.952;10.818;2022-09-12T04:04:03;24.48;;;14.73;;
28988;SDS011;16089;59.952;10.818;2022-09-12T04:06:29;24.00;;;16.30;;
28988;SDS011;16089;59.952;10.818;2022-09-12T04:08:56;22.48;;;15.07;;
28988;SDS011;16089;59.952;10.818;2022-09-12T04:11:22;19.02;;;14.60;;
28988;SDS011;16089;59.952;10.818;2022-09-12T04:13:49;16.35;;;12.38;;
28988;SDS011;16089;59.952;10.818;2022-09-12T04:16:15;16.52;;;13.52;;
28988;SDS011;16089;59.952;10.818;2022-09-12T04:18:44;19.05;;;12.65;;
28988;SDS011;16089;59.952;10.818;2022-09-12T04:21:11;20.08;;;13.60;;
28988;SDS011;16089;59.952;10.818;2022-09-12T04:23:38;19.58;;;14.20;;
28988;SDS011;16089;59.952;10.818;2022-09-12T04:26:04;19.40;;;11.93;;
28988;SDS011;16089;59.952;10.818;2022-09-12T04:28:31;18.45;;;13.38;;
28988;SDS011;16089;59.952;10.818;2022-09-12T04:31:00;18.92;;;11.55;;
28988;SDS011;16089;59.952;10.818;2022-09-12T04:33:26;15.95;;;11.20;;
28988;SDS011;16089;59.952;10.818;2022-09-12T04:35:54;18.77;;;10.68;;
28988;SDS011;16089;59.952;10.818;2022-09-12T04:38:21;13.13;;;10.15;;
28988;SDS011;16089;59.952;10.818;2022-09-12T04:40:47;14.77;;;10.27;;
28988;SDS011;16089;59.952;10.818;2022-09-12T04:43:13;13.63;;;10.98;;
28988;SDS011;16089;59.952;10.818;2022-09-12T04:45:40;13.20;;;8.93;;
28988;SDS011;16089;59.952;10.818;2022-09-12T04:48:06;12.68;;;8.95;;
28988;SDS011;16089;59.952;10.818;2022-09-12T04:50:32;15.20;;;10.48;;
28988;SDS011;16089;59.952;10.818;2022-09-12T04:53:00;15.40;;;10.23;;
28988;SDS011;16089;59.952;10.818;2022-09-12T04:55:27;20.75;;;10.10;;
28988;SDS011;16089;59.952;10.818;2022-09-12T04:57:53;16.15;;;10.77;;
28988;SDS011;16089;59.952;10.818;2022-09-12T05:00:19;16.10;;;11.00;;
28988;SDS011;16089;59.952;10.818;2022-09-12T05:02:46;16.33;;;11.43;;
28988;SDS011;16089;59.952;10.818;2022-09-12T05:05:12;18.67;;;12.60;;
28988;SDS011;16089;59.952;10.818;2022-09-12T05:07:39;18.02;;;12.40;;
28988;SDS011;16089;59.952;10.818;2022-09-12T05:10:07;22.90;;;14.07;;
28988;SDS011;16089;59.952;10.818;2022-09-12T05:12:34;25.70;;;14.45;;
28988;SDS011;16089;59.952;10.818;2022-09-12T05:15:00;27.67;;;15.02;;
28988;SDS011;16089;59.952;10.818;2022-09-12T05:17:27;27.33;;;15.02;;
28988;SDS011;16089;59.952;10.818;2022-09-12T05:19:54;27.50;;;15.70;;
28988;SDS011;16089;59.952;10.818;2022-09-12T05:22:20;23.33;;;14.18;;
28988;SDS011;16089;59.952;10.818;2022-09-12T05:24:46;26.15;;;15.30;;
28988;SDS011;16089;59.952;10.818;2022-09-12T05:27:14;26.13;;;14.73;;
28988;SDS011;16089;59.952;10.818;2022-09-12T05:29:40;26.50;;;14.07;;
28988;SDS011;16089;59.952;10.818;2022-09-12T05:32:07;25.42;;;14.02;;
28988;SDS011;16089;59.952;10.818;2022-09-12T05:34:36;23.60;;;13.48;;
28988;SDS011;16089;59.952;10.818;2022-09-12T05:37:02;26.52;;;14.20;;
28988;SDS011;16089;59.952;10.818;2022-09-12T05:39:29;26.98;;;14.48;;
28988;SDS011;16089;59.952;10.818;2022-09-12T05:41:55;26.50;;;13.98;;
28988;SDS011;16089;59.952;10.818;2022-09-12T05:44:23;29.27;;;15.98;;
28988;SDS011;16089;59.952;10.818;2022-09-12T05:46:49;25.77;;;15.05;;
28988;SDS011;16089;59.952;10.818;2022-09-12T05:49:17;28.73;;;14.93;;
28988;SDS011;16089;59.952;10.818;2022-09-12T05:51:45;30.02;;;16.30;;
28988;SDS011;16089;59.952;10.818;2022-09-12T05:54:12;28.33;;;15.20;;
28988;SDS011;16089;59.952;10.818;2022-09-12T05:56:39;31.45;;;14.82;;
28988;SDS011;16089;59.952;10.818;2022-09-12T05:59:06;29.05;;;15.13;;
28988;SDS011;16089;59.952;10.818;2022-09-12T06:01:34;26.20;;;15.27;;
28988;SDS011;16089;59.952;10.818;2022-09-12T06:04:02;28.52;;;15.23;;
28988;SDS011;16089;59.952;10.818;2022-09-12T06:06:29;26.35;;;14.57;;
28988;SDS011;16089;59.952;10.818;2022-09-12T06:08:57;29.85;;;15.15;;
28988;SDS011;16089;59.952;10.818;2022-09-12T06:11:24;30.08;;;15.00;;
28988;SDS011;16089;59.952;10.818;2022-09-12T06:13:51;27.77;;;14.43;;
28988;SDS011;16089;59.952;10.818;2022-09-12T06:16:17;26.15;;;14.43;;
28988;SDS011;16089;59.952;10.818;2022-09-12T06:18:47;27.17;;;13.50;;
28988;SDS011;16089;59.952;10.818;2022-09-12T06:21:13;25.38;;;13.60;;
28988;SDS011;16089;59.952;10.818;2022-09-12T06:23:40;26.20;;;13.52;;
28988;SDS011;16089;59.952;10.818;2022-09-12T06:26:07;24.30;;;13.18;;
28988;SDS011;16089;59.952;10.818;2022-09-12T06:28:34;24.20;;;13.20;;
28988;SDS011;16089;59.952;10.818;2022-09-12T06:31:01;25.92;;;12.82;;
28988;SDS011;16089;59.952;10.818;2022-09-12T06:33:29;27.35;;;12.27;;
28988;SDS011;16089;59.952;10.818;2022-09-12T06:36:02;24.13;;;12.90;;
28988;SDS011;16089;59.952;10.818;2022-09-12T06:38:29;23.45;;;12.95;;
28988;SDS011;16089;59.952;10.818;2022-09-12T06:40:55;28.75;;;13.75;;
28988;SDS011;16089;59.952;10.818;2022-09-12T06:43:22;25.90;;;12.82;;
28988;SDS011;16089;59.952;10.818;2022-09-12T06:45:49;24.73;;;11.90;;
28988;SDS011;16089;59.952;10.818;2022-09-12T06:48:16;24.52;;;12.93;;
28988;SDS011;16089;59.952;10.818;2022-09-12T06:50:42;23.65;;;13.18;;
28988;SDS011;16089;59.952;10.818;2022-09-12T06:53:10;24.40;;;13.48;;
28988;SDS011;16089;59.952;10.818;2022-09-12T06:55:36;23.98;;;12.32;;
28988;SDS011;16089;59.952;10.818;2022-09-12T06:58:03;20.27;;;11.68;;
28988;SDS011;16089;59.952;10.818;2022-09-12T07:00:29;25.48;;;13.20;;
28988;SDS011;16089;59.952;10.818;2022-09-12T07:02:56;22.48;;;11.73;;
28988;SDS011;16089;59.952;10.818;2022-09-12T07:05:22;25.45;;;12.40;;
28988;SDS011;16089;59.952;10.818;2022-09-12T07:07:49;22.98;;;11.65;;
28988;SDS011;16089;59.952;10.818;2022-09-12T07:10:16;21.45;;;11.18;;
28988;SDS011;16089;59.952;10.818;2022-09-12T07:12:43;22.73;;;11.63;;
28988;SDS011;16089;59.952;10.818;2022-09-12T07:15:09;21.30;;;11.68;;
28988;SDS011;16089;59.952;10.818;2022-09-12T07:17:36;15.80;;;10.18;;
28988;SDS011;16089;59.952;10.818;2022-09-12T07:20:02;21.70;;;11.95;;
28988;SDS011;16089;59.952;10.818;2022-09-12T07:22:29;19.35;;;11.25;;
28988;SDS011;16089;59.952;10.818;2022-09-12T07:24:55;19.77;;;10.98;;
28988;SDS011;16089;59.952;10.818;2022-09-12T07:27:23;15.27;;;9.65;;
28988;SDS011;16089;59.952;10.818;2022-09-12T07:29:49;19.33;;;11.20;;
28988;SDS011;16089;59.952;10.818;2022-09-12T07:32:16;15.63;;;10.30;;
28988;SDS011;16089;59.952;10.818;2022-09-12T07:34:43;15.88;;;10.45;;
28988;SDS011;16089;59.952;10.818;2022-09-12T07:37:10;16.48;;;9.73;;
28988;SDS011;16089;59.952;10.818;2022-09-12T07:39:36;15.70;;;9.88;;
28988;SDS011;16089;59.952;10.818;2022-09-12T07:42:03;15.85;;;9.55;;
28988;SDS011;16089;59.952;10.818;2022-09-12T07:44:31;14.88;;;9.27;;
28988;SDS011;16089;59.952;10.818;2022-09-12T07:46:57;11.93;;;8.90;;
28988;SDS011;16089;59.952;10.818;2022-09-12T07:49:23;9.85;;;8.13;;
28988;SDS011;16089;59.952;10.818;2022-09-12T07:51:50;16.83;;;8.75;;
28988;SDS011;16089;59.952;10.818;2022-09-12T07:54:16;16.02;;;8.57;;
28988;SDS011;16089;59.952;10.818;2022-09-12T07:56:42;10.75;;;7.45;;
28988;SDS011;16089;59.952;10.818;2022-09-12T07:59:09;9.90;;;7.80;;
28988;SDS011;16089;59.952;10.818;2022-09-12T08:01:40;12.95;;;8.02;;
28988;SDS011;16089;59.952;10.818;2022-09-12T08:04:07;10.93;;;7.35;;
28988;SDS011;16089;59.952;10.818;2022-09-12T08:06:33;9.55;;;6.63;;
28988;SDS011;16089;59.952;10.818;2022-09-12T08:09:01;10.07;;;6.70;;
28988;SDS011;16089;59.952;10.818;2022-09-12T08:11:27;9.90;;;7.05;;
28988;SDS011;16089;59.952;10.818;2022-09-12T08:13:54;10.20;;;7.03;;
28988;SDS011;16089;59.952;10.818;2022-09-12T08:16:22;8.07;;;6.55;;
28988;SDS011;16089;59.952;10.818;2022-09-12T08:18:50;10.77;;;6.78;;
28988;SDS011;16089;59.952;10.818;2022-09-12T08:21:17;7.85;;;6.28;;
28988;SDS011;16089;59.952;10.818;2022-09-12T08:23:44;11.30;;;6.20;;
28988;SDS011;16089;59.952;10.818;2022-09-12T08:26:11;10.27;;;5.75;;
28988;SDS011;16089;59.952;10.818;2022-09-12T08:28:37;8.40;;;5.57;;
28988;SDS011;16089;59.952;10.818;2022-09-12T08:31:05;9.60;;;5.60;;
28988;SDS011;16089;59.952;10.818;2022-09-12T08:33:32;8.25;;;6.05;;
28988;SDS011;16089;59.952;10.818;2022-09-12T08:36:04;7.68;;;5.47;;
28988;SDS011;16089;59.952;10.818;2022-09-12T08:38:31;7.50;;;5.28;;
28988;SDS011;16089;59.952;10.818;2022-09-12T08:40:59;8.88;;;5.13;;
28988;SDS011;16089;59.952;10.818;2022-09-12T08:43:30;8.52;;;5.75;;
28988;SDS011;16089;59.952;10.818;2022-09-12T08:46:00;9.57;;;6.03;;
28988;SDS011;16089;59.952;10.818;2022-09-12T08:48:29;9.68;;;5.60;;
28988;SDS011;16089;59.952;10.818;2022-09-12T08:50:55;9.23;;;5.68;;
28988;SDS011;16089;59.952;10.818;2022-09-12T08:53:23;7.20;;;4.80;;
28988;SDS011;16089;59.952;10.818;2022-09-12T08:55:51;8.13;;;5.40;;
28988;SDS011;16089;59.952;10.818;2022-09-12T08:58:19;10.52;;;5.18;;
28988;SDS011;16089;59.952;10.818;2022-09-12T09:00:48;7.55;;;4.50;;
28988;SDS011;16089;59.952;10.818;2022-09-12T09:05:58;8.30;;;3.97;;
28988;SDS011;16089;59.952;10.818;2022-09-12T09:08:32;7.57;;;4.50;;
28988;SDS011;16089;59.952;10.818;2022-09-12T09:11:03;7.07;;;4.07;;
28988;SDS011;16089;59.952;10.818;2022-09-12T09:13:42;8.43;;;4.20;;
28988;SDS011;16089;59.952;10.818;2022-09-12T09:16:33;5.30;;;3.80;;
28988;SDS011;16089;59.952;10.818;2022-09-12T13:41:00;6.15;;;2.42;;
28988;SDS011;16089;59.952;10.818;2022-09-12T13:43:29;8.55;;;2.88;;
28988;SDS011;16089;59.952;10.818;2022-09-12T13:46:01;7.03;;;2.70;;
28988;SDS011;16089;59.952;10.818;2022-09-12T13:48:27;3.85;;;2.10;;
28988;SDS011;16089;59.952;10.818;2022-09-12T13:50:54;4.57;;;2.67;;
28988;SDS011;16089;59.952;10.818;2022-09-12T13:53:22;6.80;;;2.80;;
28988;SDS011;16089;59.952;10.818;2022-09-12T13:55:50;5.18;;;2.60;;
28988;SDS011;16089;59.952;10.818;2022-09-12T13:58:20;8.27;;;2.55;;
28988;SDS011;16089;59.952;10.818;2022-09-12T14:00:58;4.50;;;2.40;;
28988;SDS011;16089;59.952;10.818;2022-09-12T14:03:26;5.78;;;2.38;;
28988;SDS011;16089;59.952;10.818;2022-09-12T14:06:10;5.18;;;2.20;;
28988;SDS011;16089;59.952;10.818;2022-09-12T14:08:38;4.30;;;2.28;;
28988;SDS011;16089;59.952;10.818;2022-09-12T14:11:06;4.13;;;2.35;;
28988;SDS011;16089;59.952;10.818;2022-09-12T14:13:35;6.20;;;3.05;;
28988;SDS011;16089;59.952;10.818;2022-09-12T14:16:02;8.32;;;4.18;;
28988;SDS011;16089;59.952;10.818;2022-09-12T14:18:34;9.52;;;5.47;;
28988;SDS011;16089;59.952;10.818;2022-09-12T14:21:07;6.53;;;3.13;;
28988;SDS011;16089;59.952;10.818;2022-09-12T14:23:34;6.47;;;2.70;;
28988;SDS011;16089;59.952;10.818;2022-09-12T14:26:03;7.75;;;2.20;;
28988;SDS011;16089;59.952;10.818;2022-09-12T14:28:34;6.03;;;2.75;;
28988;SDS011;16089;59.952;10.818;2022-09-12T14:31:02;4.43;;;1.92;;
28988;SDS011;16089;59.952;10.818;2022-09-12T14:33:31;5.57;;;2.40;;
28988;SDS011;16089;59.952;10.818;2022-09-12T14:36:10;4.93;;;2.38;;
28988;SDS011;16089;59.952;10.818;2022-09-12T14:38:39;5.07;;;2.50;;
28988;SDS011;16089;59.952;10.818;2022-09-12T14:41:07;4.75;;;2.03;;
28988;SDS011;16089;59.952;10.818;2022-09-12T14:43:35;9.88;;;2.58;;
28988;SDS011;16089;59.952;10.818;2022-09-12T14:46:02;8.45;;;2.22;;
28988;SDS011;16089;59.952;10.818;2022-09-12T14:48:30;5.28;;;2.63;;
28988;SDS011;16089;59.952;10.818;2022-09-12T14:50:57;6.32;;;2.40;;
28988;SDS011;16089;59.952;10.818;2022-09-12T14:53:30;6.90;;;2.40;;
28988;SDS011;16089;59.952;10.818;2022-09-12T14:55:58;8.55;;;2.50;;
28988;SDS011;16089;59.952;10.818;2022-09-12T14:58:28;5.05;;;2.67;;
28988;SDS011;16089;59.952;10.818;2022-09-12T15:00:57;7.32;;;2.92;;
28988;SDS011;16089;59.952;10.818;2022-09-12T15:03:33;8.13;;;2.75;;
28988;SDS011;16089;59.952;10.818;2022-09-12T15:06:00;6.00;;;2.83;;
28988;SDS011;16089;59.952;10.818;2022-09-12T15:08:28;7.00;;;2.65;;
28988;SDS011;16089;59.952;10.818;2022-09-12T15:10:55;7.65;;;2.88;;
28988;SDS011;16089;59.952;10.818;2022-09-12T15:13:22;7.80;;;3.10;;
28988;SDS011;16089;59.952;10.818;2022-09-12T15:15:50;6.80;;;3.47;;
28988;SDS011;16089;59.952;10.818;2022-09-12T15:18:18;5.15;;;2.97;;
28988;SDS011;16089;59.952;10.818;2022-09-12T15:20:45;7.68;;;2.90;;
28988;SDS011;16089;59.952;10.818;2022-09-12T15:23:14;8.70;;;3.10;;
28988;SDS011;16089;59.952;10.818;2022-09-12T15:25:41;9.15;;;3.88;;
28988;SDS011;16089;59.952;10.818;2022-09-12T15:28:12;8.25;;;3.92;;
28988;SDS011;16089;59.952;10.818;2022-09-12T15:30:40;7.10;;;3.25;;
28988;SDS011;16089;59.952;10.818;2022-09-12T15:33:07;6.10;;;3.20;;
28988;SDS011;16089;59.952;10.818;2022-09-12T15:35:35;9.45;;;3.15;;
28988;SDS011;16089;59.952;10.818;2022-09-12T15:38:01;5.78;;;3.05;;
28988;SDS011;16089;59.952;10.818;2022-09-12T15:40:27;6.00;;;3.08;;
28988;SDS011;16089;59.952;10.818;2022-09-12T15:42:54;8.15;;;3.35;;
28988;SDS011;16089;59.952;10.818;2022-09-12T15:45:20;6.72;;;3.35;;
28988;SDS011;16089;59.952;10.818;2022-09-12T15:47:47;6.35;;;2.60;;
28988;SDS011;16089;59.952;10.818;2022-09-12T15:50:14;6.60;;;3.17;;
28988;SDS011;16089;59.952;10.818;2022-09-12T15:52:41;7.25;;;2.97;;
28988;SDS011;16089;59.952;10.818;2022-09-12T15:55:09;7.32;;;2.80;;
28988;SDS011;16089;59.952;10.818;2022-09-12T15:57:37;7.38;;;3.20;;
28988;SDS011;16089;59.952;10.818;2022-09-12T16:00:04;5.82;;;3.20;;
28988;SDS011;16089;59.952;10.818;2022-09-12T16:02:31;8.75;;;3.60;;
28988;SDS011;16089;59.952;10.818;2022-09-12T16:04:57;7.82;;;3.60;;
28988;SDS011;16089;59.952;10.818;2022-09-12T16:07:24;6.28;;;3.53;;
28988;SDS011;16089;59.952;10.818;2022-09-12T16:09:51;10.45;;;3.60;;
28988;SDS011;16089;59.952;10.818;2022-09-12T16:12:18;9.05;;;4.22;;
28988;SDS011;16089;59.952;10.818;2022-09-12T16:14:44;7.88;;;4.30;;
28988;SDS011;16089;59.952;10.818;2022-09-12T16:17:10;8.93;;;4.28;;
28988;SDS011;16089;59.952;10.818;2022-09-12T16:19:37;9.75;;;4.20;;
28988;SDS011;16089;59.952;10.818;2022-09-12T16:22:03;8.48;;;3.75;;
28988;SDS011;16089;59.952;10.818;2022-09-12T16:24:29;7.03;;;4.15;;
28988;SDS011;16089;59.952;10.818;2022-09-12T16:26:57;6.93;;;4.10;;
28988;SDS011;16089;59.952;10.818;2022-09-12T16:29:24;7.82;;;4.10;;
28988;SDS011;16089;59.952;10.818;2022-09-12T16:31:51;10.93;;;4.53;;
28988;SDS011;16089;59.952;10.818;2022-09-12T16:34:17;10.00;;;4.72;;
28988;SDS011;16089;59.952;10.818;2022-09-12T16:36:43;9.90;;;5.05;;
28988;SDS011;16089;59.952;10.818;2022-09-12T16:39:11;7.93;;;4.18;;
28988;SDS011;16089;59.952;10.818;2022-09-12T16:41:37;12.30;;;4.75;;
28988;SDS011;16089;59.952;10.818;2022-09-12T16:44:07;7.82;;;4.18;;
28988;SDS011;16089;59.952;10.818;2022-09-12T16:46:34;11.20;;;5.13;;
28988;SDS011;16089;59.952;10.818;2022-09-12T16:49:00;8.55;;;4.65;;
28988;SDS011;16089;59.952;10.818;2022-09-12T16:51:28;10.20;;;5.28;;
28988;SDS011;16089;59.952;10.818;2022-09-12T16:53:55;10.35;;;4.53;;
28988;SDS011;16089;59.952;10.818;2022-09-12T16:56:22;7.82;;;4.68;;
28988;SDS011;16089;59.952;10.818;2022-09-12T16:58:48;9.57;;;5.05;;
28988;SDS011;16089;59.952;10.818;2022-09-12T17:01:17;8.38;;;5.30;;
28988;SDS011;16089;59.952;10.818;2022-09-12T17:03:44;9.13;;;4.88;;
28988;SDS011;16089;59.952;10.818;2022-09-12T17:06:11;9.82;;;5.63;;
28988;SDS011;16089;59.952;10.818;2022-09-12T17:08:39;10.63;;;6.45;;
28988;SDS011;16089;59.952;10.818;2022-09-12T17:11:06;10.43;;;5.70;;
28988;SDS011;16089;59.952;10.818;2022-09-12T17:13:33;12.48;;;5.90;;
28988;SDS011;16089;59.952;10.818;2022-09-12T17:16:00;9.60;;;5.75;;
28988;SDS011;16089;59.952;10.818;2022-09-12T17:18:31;11.27;;;6.15;;
28988;SDS011;16089;59.952;10.818;2022-09-12T17:20:57;10.15;;;6.10;;
28988;SDS011;16089;59.952;10.818;2022-09-12T17:23:23;7.88;;;4.93;;
28988;SDS011;16089;59.952;10.818;2022-09-12T17:25:50;11.05;;;6.00;;
28988;SDS011;16089;59.952;10.818;2022-09-12T17:28:17;9.20;;;5.78;;
28988;SDS011;16089;59.952;10.818;2022-09-12T17:30:43;10.57;;;5.75;;
28988;SDS011;16089;59.952;10.818;2022-09-12T17:33:09;8.13;;;5.50;;
28988;SDS011;16089;59.952;10.818;2022-09-12T17:35:37;12.07;;;5.88;;
28988;SDS011;16089;59.952;10.818;2022-09-12T17:38:06;9.80;;;5.53;;
28988;SDS011;16089;59.952;10.818;2022-09-12T17:40:33;11.82;;;5.60;;
28988;SDS011;16089;59.952;10.818;2022-09-12T17:43:00;12.02;;;5.85;;
28988;SDS011;16089;59.952;10.818;2022-09-12T17:45:27;11.38;;;6.45;;
28988;SDS011;16089;59.952;10.818;2022-09-12T17:47:53;8.45;;;5.18;;
28988;SDS011;16089;59.952;10.818;2022-09-12T17:50:20;13.30;;;5.82;;
28988;SDS011;16089;59.952;10.818;2022-09-12T17:52:47;10.20;;;5.95;;
28988;SDS011;16089;59.952;10.818;2022-09-12T17:55:14;8.80;;;6.45;;
28988;SDS011;16089;59.952;10.818;2022-09-12T17:57:40;11.35;;;6.43;;
28988;SDS011;16089;59.952;10.818;2022-09-12T18:00:08;12.68;;;6.63;;
28988;SDS011;16089;59.952;10.818;2022-09-12T18:02:35;12.07;;;7.25;;
28988;SDS011;16089;59.952;10.818;2022-09-12T18:05:00;11.65;;;6.60;;
28988;SDS011;16089;59.952;10.818;2022-09-12T18:07:29;10.77;;;7.38;;
28988;SDS011;16089;59.952;10.818;2022-09-12T18:09:57;10.63;;;7.10;;
28988;SDS011;16089;59.952;10.818;2022-09-12T18:12:23;13.80;;;7.80;;
28988;SDS011;16089;59.952;10.818;2022-09-12T18:14:50;12.00;;;7.28;;
28988;SDS011;16089;59.952;10.818;2022-09-12T18:17:16;12.85;;;7.85;;
28988;SDS011;16089;59.952;10.818;2022-09-12T18:19:43;17.85;;;8.07;;
28988;SDS011;16089;59.952;10.818;2022-09-12T18:22:10;13.77;;;7.82;;
28988;SDS011;16089;59.952;10.818;2022-09-12T18:24:37;13.25;;;7.20;;
28988;SDS011;16089;59.952;10.818;2022-09-12T18:27:05;13.23;;;7.65;;
28988;SDS011;16089;59.952;10.818;2022-09-12T18:29:31;13.68;;;7.45;;
28988;SDS011;16089;59.952;10.818;2022-09-12T18:31:57;12.38;;;7.88;;
28988;SDS011;16089;59.952;10.818;2022-09-12T18:34:24;12.75;;;7.47;;
28988;SDS011;16089;59.952;10.818;2022-09-12T18:36:50;14.88;;;8.00;;
28988;SDS011;16089;59.952;10.818;2022-09-12T18:39:18;10.18;;;6.82;;
28988;SDS011;16089;59.952;10.818;2022-09-12T18:41:45;11.50;;;7.40;;
28988;SDS011;16089;59.952;10.818;2022-09-12T18:44:13;10.10;;;7.35;;
28988;SDS011;16089;59.952;10.818;2022-09-12T18:46:39;12.27;;;8.07;;
28988;SDS011;16089;59.952;10.818;2022-09-12T18:49:05;12.80;;;8.60;;